Mr. Nelson — WDE7778 — position and weather

sailwx.info

Track history (hours):
 
Tides and Currents Weather Stations Pressure Air Temp Water Temp Dewpoint Dewpoint Depression Visibility Wind Speed Wind Dir Waves Ship Positions

Mr. Nelson

Owner: A C MARINE, INC., CUT OFF, LA. More information available from US FCC via Universal Licensing System and Coast Guard Vessel Documentation Center.

Last reported at 2018-Feb-14 01:45 UTC. Time now 2018-Feb-19 06:12 UTC.
Position N 29°33' W 090°25'.

Type: Towing. MMSI: 367397510.

Date/timePositionNaut miles runAvg speedWind from/ knotsBaromVisibWave heightAir tempDewpointWater temp
2018-Feb-14 01:45N 29°33' W 090°25'1 2.7
2018-Feb-14 01:13N 29°33' W 090°26'2 4.8
2018-Feb-14 00:54N 29°33' W 090°28'2 4.8
2018-Feb-14 00:30N 29°34' W 090°30'2 4.8
2018-Feb-13 23:59N 29°34' W 090°33'2 4.6
2018-Feb-13 23:30N 29°35' W 090°36'2 4.4
2018-Feb-13 22:59N 29°35' W 090°38'2 4.6
2018-Feb-13 22:30N 29°36' W 090°40'2 3.8
2018-Feb-13 22:00N 29°36' W 090°43'2 4.5
2018-Feb-13 21:30N 29°34' W 090°43'2 4.0
2018-Feb-13 21:00N 29°32' W 090°42'2 4.1
2018-Feb-13 20:30N 29°30' W 090°43'2 4.0
2018-Feb-13 19:59N 29°28' W 090°43'  
Track history (hours):
 
Tides and Currents Weather Stations Pressure Air Temp Water Temp Dewpoint Dewpoint Depression Visibility Wind Speed Wind Dir Waves Ship Positions

Mr. Nelson

Owner: A C MARINE, INC., CUT OFF, LA. More information available from US FCC via Universal Licensing System and Coast Guard Vessel Documentation Center.

Last reported at 2018-Feb-14 01:45 UTC. Time now 2018-Feb-19 06:12 UTC.
Position N 29°33' W 090°25'.

Type: Towing. MMSI: 367397510.

Date/timePositionNaut miles runAvg speedWind from/ knotsBaromVisibWave heightAir tempDewpointWater temp
2018-Feb-14 01:45N 29°33' W 090°25'1 2.7
2018-Feb-14 01:13N 29°33' W 090°26'2 4.8
2018-Feb-14 00:54N 29°33' W 090°28'2 4.8
2018-Feb-14 00:30N 29°34' W 090°30'2 4.8
2018-Feb-13 23:59N 29°34' W 090°33'2 4.6
2018-Feb-13 23:30N 29°35' W 090°36'2 4.4
2018-Feb-13 22:59N 29°35' W 090°38'2 4.6
2018-Feb-13 22:30N 29°36' W 090°40'2 3.8
2018-Feb-13 22:00N 29°36' W 090°43'2 4.5
2018-Feb-13 21:30N 29°34' W 090°43'2 4.0
2018-Feb-13 21:00N 29°32' W 090°42'2 4.1
2018-Feb-13 20:30N 29°30' W 090°43'2 4.0
2018-Feb-13 19:59N 29°28' W 090°43'  

Dump ship's entire track history